^^
Saratoga-Weather Station Historical Data
Daily Summary for January 17, 2022 Units:  Both    English   Metric
Daily Weekly Monthly Yearly Custom
  High: Low: Average:
Temperature: 39.9 °F /  4.4 °C 32.5 °F /  0.3 °C 36.3 °F /  2.4 °C
Dew Point: 38.3 °F /  3.5 °C 31.3 °F /  -0.4 °C 35.1 °F /  1.7 °C
Humidity: 96% 93% 95%
Wind Speed: 10.1mph /  16.3km/h - 2.4mph /  3.9km/h
Wind Gust: 13mph /  20.9km/h - -
Wind- - West
Pressure: 30.6 in /  1037.6 hPa 30.5 in /  1033.5 hPa -
Precipitation: 0.01 in /  0.2 mm    
Historical Graphs
 
 
Tabular Data for January 17, 2022
Time Temperature Dew Point Pressure Wind Wind Speed Wind Gust Humidity Rainfall Rate (Hourly) solar
00:00 32.5 °F /  0.3 °C 31.3 °F /  -0.4 °C 30.5in /  1033.5hPa Calm     95% 0in /  0.0mm 0 W/m2
00:05 32.5 °F /  0.3 °C 31.3 °F /  -0.4 °C 30.5in /  1033.5hPa WSW 2mph /  3.2km/h 4mph /  6.4km/h 95% 0in /  0.0mm 0 W/m2
00:10 32.5 °F /  0.3 °C 31.3 °F /  -0.4 °C 30.5in /  1033.9hPa Calm   1mph /  1.6km/h 95% 0in /  0.0mm 0 W/m2
00:15 32.7 °F /  0.4 °C 31.5 °F /  -0.3 °C 30.5in /  1033.9hPa West 0.9mph /  1.4km/h 4mph /  6.4km/h 95% 0in /  0.0mm 0 W/m2
00:20 32.7 °F /  0.4 °C 31.5 °F /  -0.3 °C 30.5in /  1033.5hPa WSW 0.9mph /  1.4km/h 1mph /  1.6km/h 95% 0in /  0.0mm 0 W/m2
00:26 32.7 °F /  0.4 °C 31.5 °F /  -0.3 °C 30.5in /  1033.5hPa Calm   2mph /  3.2km/h 95% 0in /  0.0mm 0 W/m2
00:31 32.7 °F /  0.4 °C 31.5 °F /  -0.3 °C 30.5in /  1033.5hPa North 2mph /  3.2km/h 3mph /  4.8km/h 95% 0in /  0.0mm 0 W/m2
00:36 32.7 °F /  0.4 °C 31.5 °F /  -0.3 °C 30.5in /  1033.5hPa North 0.9mph /  1.4km/h 1mph /  1.6km/h 95% 0in /  0.0mm 0 W/m2
00:41 32.7 °F /  0.4 °C 31.5 °F /  -0.3 °C 30.5in /  1033.9hPa Calm   2mph /  3.2km/h 95% 0in /  0.0mm 0 W/m2
00:46 32.7 °F /  0.4 °C 31.5 °F /  -0.3 °C 30.5in /  1033.5hPa Calm     95% 0in /  0.0mm 0 W/m2
00:51 32.7 °F /  0.4 °C 31.5 °F /  -0.3 °C 30.5in /  1033.9hPa Calm     95% 0in /  0.0mm 0 W/m2
00:56 32.7 °F /  0.4 °C 31.5 °F /  -0.3 °C 30.5in /  1033.9hPa WSW 2mph /  3.2km/h 3mph /  4.8km/h 95% 0in /  0.0mm 0 W/m2
01:01 32.7 °F /  0.4 °C 31.5 °F /  -0.3 °C 30.5in /  1033.9hPa Calm     95% 0in /  0.0mm 0 W/m2
01:06 32.7 °F /  0.4 °C 31.5 °F /  -0.3 °C 30.5in /  1033.5hPa SSW 0.9mph /  1.4km/h 5mph /  8km/h 95% 0in /  0.0mm 0 W/m2
01:11 32.7 °F /  0.4 °C 31.5 °F /  -0.3 °C 30.5in /  1033.5hPa Calm     95% 0in /  0.0mm 0 W/m2
01:16 32.7 °F /  0.4 °C 31.5 °F /  -0.3 °C 30.5in /  1033.5hPa Calm     95% 0in /  0.0mm 0 W/m2
01:21 32.9 °F /  0.5 °C 31.6 °F /  -0.2 °C 30.5in /  1033.5hPa Calm     95% 0in /  0.0mm 0 W/m2
01:26 32.7 °F /  0.4 °C 31.5 °F /  -0.3 °C 30.5in /  1033.5hPa Calm   1mph /  1.6km/h 95% 0in /  0.0mm 0 W/m2
01:31 32.7 °F /  0.4 °C 31.5 °F /  -0.3 °C 30.5in /  1033.5hPa Calm   1mph /  1.6km/h 95% 0in /  0.0mm 0 W/m2
01:36 32.9 °F /  0.5 °C 31.6 °F /  -0.2 °C 30.5in /  1033.5hPa Calm   1mph /  1.6km/h 95% 0in /  0.0mm 0 W/m2
01:41 32.9 °F /  0.5 °C 31.6 °F /  -0.2 °C 30.5in /  1033.9hPa Calm   2mph /  3.2km/h 95% 0.01in /  0.2mm 0 W/m2
01:46 33.1 °F /  0.6 °C 32 °F /  0 °C 30.5in /  1033.5hPa Calm   1mph /  1.6km/h 96% 0.01in /  0.2mm 0 W/m2
01:51 33.1 °F /  0.6 °C 32 °F /  0 °C 30.5in /  1033.9hPa ENE 0.9mph /  1.4km/h 3mph /  4.8km/h 96% 0.01in /  0.2mm 0 W/m2
01:56 33.1 °F /  0.6 °C 32 °F /  0 °C 30.5in /  1033.5hPa Calm   2mph /  3.2km/h 96% 0.01in /  0.2mm 0 W/m2
02:01 33.1 °F /  0.6 °C 32 °F /  0 °C 30.5in /  1033.5hPa NNW 0.9mph /  1.4km/h 2mph /  3.2km/h 96% 0.01in /  0.2mm 0 W/m2
02:06 33.1 °F /  0.6 °C 32 °F /  0 °C 30.5in /  1033.9hPa NW 2mph /  3.2km/h 3mph /  4.8km/h 96% 0.01in /  0.2mm 0 W/m2
02:11 33.1 °F /  0.6 °C 32 °F /  0 °C 30.5in /  1033.9hPa Calm     96% 0.01in /  0.2mm 0 W/m2
02:16 33.1 °F /  0.6 °C 32 °F /  0 °C 30.5in /  1033.9hPa Calm   2mph /  3.2km/h 96% 0.01in /  0.2mm 0 W/m2
02:21 33.1 °F /  0.6 °C 32 °F /  0 °C 30.5in /  1033.9hPa West 0.9mph /  1.4km/h 2mph /  3.2km/h 96% 0.01in /  0.2mm 0 W/m2
02:26 33.1 °F /  0.6 °C 32 °F /  0 °C 30.5in /  1033.9hPa Calm   1mph /  1.6km/h 96% 0.01in /  0.2mm 0 W/m2
02:31 33.1 °F /  0.6 °C 32 °F /  0 °C 30.5in /  1033.9hPa Calm   1mph /  1.6km/h 96% 0.01in /  0.2mm 0 W/m2
02:36 33.3 °F /  0.7 °C 32.2 °F /  0.1 °C 30.5in /  1033.9hPa West 0.9mph /  1.4km/h 5mph /  8km/h 96% 0.01in /  0.2mm 0 W/m2
02:41 33.3 °F /  0.7 °C 32.2 °F /  0.1 °C 30.5in /  1033.9hPa East 2mph /  3.2km/h 3mph /  4.8km/h 96% 0in /  0.0mm 0 W/m2
02:46 33.3 °F /  0.7 °C 32.2 °F /  0.1 °C 30.5in /  1033.9hPa Calm   5mph /  8km/h 96% 0in /  0.0mm 0 W/m2
02:51 33.3 °F /  0.7 °C 32.2 °F /  0.1 °C 30.5in /  1033.9hPa WSW 0.9mph /  1.4km/h 1mph /  1.6km/h 96% 0in /  0.0mm 0 W/m2
02:56 33.3 °F /  0.7 °C 32.2 °F /  0.1 °C 30.5in /  1033.9hPa Calm   2mph /  3.2km/h 96% 0in /  0.0mm 0 W/m2
03:01 33.3 °F /  0.7 °C 32.2 °F /  0.1 °C 30.5in /  1033.9hPa SSE 0.9mph /  1.4km/h 1mph /  1.6km/h 96% 0in /  0.0mm 0 W/m2
03:06 33.3 °F /  0.7 °C 32.2 °F /  0.1 °C 30.5in /  1033.9hPa West 0.9mph /  1.4km/h 1mph /  1.6km/h 96% 0in /  0.0mm 0 W/m2
03:11 33.3 °F /  0.7 °C 32.2 °F /  0.1 °C 30.5in /  1033.9hPa Calm   1mph /  1.6km/h 96% 0in /  0.0mm 0 W/m2
03:16 33.3 °F /  0.7 °C 32.2 °F /  0.1 °C 30.5in /  1033.9hPa West 2mph /  3.2km/h 6mph /  9.7km/h 96% 0in /  0.0mm 0 W/m2
03:21 33.3 °F /  0.7 °C 32.2 °F /  0.1 °C 30.5in /  1033.9hPa NNW 2mph /  3.2km/h 4mph /  6.4km/h 96% 0in /  0.0mm 0 W/m2
03:26 33.3 °F /  0.7 °C 32.2 °F /  0.1 °C 30.5in /  1033.9hPa WNW 2mph /  3.2km/h 3mph /  4.8km/h 96% 0in /  0.0mm 0 W/m2
03:31 33.3 °F /  0.7 °C 32.2 °F /  0.1 °C 30.5in /  1033.9hPa West 2mph /  3.2km/h 3mph /  4.8km/h 96% 0in /  0.0mm 0 W/m2
03:36 33.3 °F /  0.7 °C 32.2 °F /  0.1 °C 30.5in /  1033.9hPa West 2mph /  3.2km/h 3mph /  4.8km/h 96% 0in /  0.0mm 0 W/m2
03:41 33.3 °F /  0.7 °C 32.2 °F /  0.1 °C 30.5in /  1033.9hPa Calm   3mph /  4.8km/h 96% 0in /  0.0mm 0 W/m2
03:46 33.3 °F /  0.7 °C 32.2 °F /  0.1 °C 30.5in /  1033.9hPa West 0.9mph /  1.4km/h 4mph /  6.4km/h 96% 0in /  0.0mm 0 W/m2
03:51 33.3 °F /  0.7 °C 32.2 °F /  0.1 °C 30.5in /  1033.9hPa WNW 2mph /  3.2km/h 3mph /  4.8km/h 96% 0in /  0.0mm 0 W/m2
03:56 33.3 °F /  0.7 °C 32.2 °F /  0.1 °C 30.5in /  1033.9hPa NW 4mph /  6.4km/h 5mph /  8km/h 96% 0in /  0.0mm 0 W/m2
04:01 33.3 °F /  0.7 °C 32.2 °F /  0.1 °C 30.5in /  1033.9hPa West 0.9mph /  1.4km/h 4mph /  6.4km/h 96% 0in /  0.0mm 0 W/m2
04:06 33.3 °F /  0.7 °C 32.2 °F /  0.1 °C 30.5in /  1033.9hPa WNW 2.9mph /  4.7km/h 4mph /  6.4km/h 96% 0in /  0.0mm 0 W/m2
04:11 33.3 °F /  0.7 °C 32.2 °F /  0.1 °C 30.5in /  1033.9hPa NNW 4.9mph /  7.9km/h 6mph /  9.7km/h 96% 0in /  0.0mm 0 W/m2
04:16 33.3 °F /  0.7 °C 32.2 °F /  0.1 °C 30.5in /  1033.9hPa NNW 0.9mph /  1.4km/h 3mph /  4.8km/h 96% 0in /  0.0mm 0 W/m2
04:21 33.3 °F /  0.7 °C 32.2 °F /  0.1 °C 30.5in /  1033.9hPa Calm   2mph /  3.2km/h 96% 0in /  0.0mm 0 W/m2
04:26 33.3 °F /  0.7 °C 32.2 °F /  0.1 °C 30.5in /  1033.5hPa Calm   2mph /  3.2km/h 96% 0in /  0.0mm 0 W/m2
04:31 33.3 °F /  0.7 °C 32.2 °F /  0.1 °C 30.5in /  1033.5hPa NW 2mph /  3.2km/h 2mph /  3.2km/h 96% 0in /  0.0mm 0 W/m2
04:36 33.3 °F /  0.7 °C 32.2 °F /  0.1 °C 30.5in /  1033.5hPa East 2mph /  3.2km/h 3mph /  4.8km/h 96% 0in /  0.0mm 0 W/m2
04:41 33.3 °F /  0.7 °C 32.2 °F /  0.1 °C 30.5in /  1033.5hPa East 2.9mph /  4.7km/h 6mph /  9.7km/h 96% 0in /  0.0mm 0 W/m2
04:46 33.4 °F /  0.8 °C 32.4 °F /  0.2 °C 30.5in /  1033.9hPa Calm   3mph /  4.8km/h 96% 0in /  0.0mm 0 W/m2
04:51 33.4 °F /  0.8 °C 32.4 °F /  0.2 °C 30.5in /  1033.9hPa Calm   2mph /  3.2km/h 96% 0in /  0.0mm 0 W/m2
04:56 33.4 °F /  0.8 °C 32.4 °F /  0.2 °C 30.5in /  1033.9hPa East 2mph /  3.2km/h 2mph /  3.2km/h 96% 0in /  0.0mm 0 W/m2
05:01 33.4 °F /  0.8 °C 32.4 °F /  0.2 °C 30.5in /  1033.9hPa ENE 0.9mph /  1.4km/h 3mph /  4.8km/h 96% 0in /  0.0mm 0 W/m2
05:06 33.4 °F /  0.8 °C 32.4 °F /  0.2 °C 30.5in /  1034.2hPa ENE 0.9mph /  1.4km/h 2mph /  3.2km/h 96% 0in /  0.0mm 0 W/m2
05:12 33.6 °F /  0.9 °C 32.5 °F /  0.3 °C 30.5in /  1033.9hPa NE 0.9mph /  1.4km/h 1mph /  1.6km/h 96% 0in /  0.0mm 0 W/m2
05:17 33.6 °F /  0.9 °C 32.5 °F /  0.3 °C 30.5in /  1033.9hPa NE 4mph /  6.4km/h 5mph /  8km/h 96% 0in /  0.0mm 0 W/m2
05:22 33.6 °F /  0.9 °C 32.5 °F /  0.3 °C 30.5in /  1034.2hPa ENE 0.9mph /  1.4km/h 2mph /  3.2km/h 96% 0in /  0.0mm 0 W/m2
05:27 33.6 °F /  0.9 °C 32.5 °F /  0.3 °C 30.5in /  1033.9hPa Calm   1mph /  1.6km/h 96% 0in /  0.0mm 0 W/m2
05:32 33.6 °F /  0.9 °C 32.5 °F /  0.3 °C 30.5in /  1033.9hPa NNE 2mph /  3.2km/h 2mph /  3.2km/h 96% 0in /  0.0mm 0 W/m2
05:37 33.6 °F /  0.9 °C 32.5 °F /  0.3 °C 30.5in /  1033.9hPa Calm   3mph /  4.8km/h 96% 0in /  0.0mm 0 W/m2
05:42 33.6 °F /  0.9 °C 32.5 °F /  0.3 °C 30.5in /  1033.9hPa ENE 0.9mph /  1.4km/h 2mph /  3.2km/h 96% 0in /  0.0mm 0 W/m2
05:47 33.6 °F /  0.9 °C 32.5 °F /  0.3 °C 30.5in /  1033.9hPa West 2.9mph /  4.7km/h 3mph /  4.8km/h 96% 0in /  0.0mm 0 W/m2
05:52 33.6 °F /  0.9 °C 32.5 °F /  0.3 °C 30.5in /  1033.9hPa Calm   4mph /  6.4km/h 96% 0in /  0.0mm 0 W/m2
05:57 33.6 °F /  0.9 °C 32.5 °F /  0.3 °C 30.5in /  1033.9hPa ESE 0.9mph /  1.4km/h 2mph /  3.2km/h 96% 0in /  0.0mm 0 W/m2
06:02 33.6 °F /  0.9 °C 32.5 °F /  0.3 °C 30.5in /  1033.9hPa ESE 0.9mph /  1.4km/h 4mph /  6.4km/h 96% 0in /  0.0mm 0 W/m2
06:07 33.6 °F /  0.9 °C 32.5 °F /  0.3 °C 30.5in /  1033.9hPa Calm   2mph /  3.2km/h 96% 0in /  0.0mm 0 W/m2
06:12 33.6 °F /  0.9 °C 32.5 °F /  0.3 °C 30.5in /  1033.9hPa West 2.9mph /  4.7km/h 5mph /  8km/h 96% 0in /  0.0mm 0 W/m2
06:17 33.6 °F /  0.9 °C 32.5 °F /  0.3 °C 30.5in /  1033.9hPa ENE 4mph /  6.4km/h 4mph /  6.4km/h 96% 0in /  0.0mm 0 W/m2
06:22 33.6 °F /  0.9 °C 32.5 °F /  0.3 °C 30.5in /  1033.9hPa Calm   5mph /  8km/h 96% 0in /  0.0mm 0 W/m2
06:27 33.6 °F /  0.9 °C 32.5 °F /  0.3 °C 30.5in /  1033.9hPa NNW 0.9mph /  1.4km/h 2mph /  3.2km/h 96% 0in /  0.0mm 0 W/m2
06:32 33.6 °F /  0.9 °C 32.5 °F /  0.3 °C 30.5in /  1033.9hPa NE 0.9mph /  1.4km/h 2mph /  3.2km/h 96% 0in /  0.0mm 0 W/m2
06:37 33.8 °F /  1 °C 32.7 °F /  0.4 °C 30.5in /  1033.9hPa Calm   8mph /  12.9km/h 96% 0in /  0.0mm 0 W/m2
06:42 33.6 °F /  0.9 °C 32.5 °F /  0.3 °C 30.5in /  1033.9hPa ENE 0.9mph /  1.4km/h 8mph /  12.9km/h 96% 0in /  0.0mm 0 W/m2
06:47 33.8 °F /  1 °C 32.7 °F /  0.4 °C 30.5in /  1033.9hPa Calm   2mph /  3.2km/h 96% 0in /  0.0mm 0 W/m2
06:52 33.8 °F /  1 °C 32.7 °F /  0.4 °C 30.5in /  1033.9hPa Calm   8mph /  12.9km/h 96% 0in /  0.0mm 0 W/m2
06:57 33.8 °F /  1 °C 32.7 °F /  0.4 °C 30.5in /  1034.2hPa Calm   4mph /  6.4km/h 96% 0in /  0.0mm 0 W/m2
07:02 33.8 °F /  1 °C 32.7 °F /  0.4 °C 30.5in /  1033.9hPa NW 2.9mph /  4.7km/h 7mph /  11.3km/h 96% 0in /  0.0mm 0 W/m2
07:07 33.8 °F /  1 °C 32.7 °F /  0.4 °C 30.5in /  1034.2hPa NW 2.9mph /  4.7km/h 4mph /  6.4km/h 96% 0in /  0.0mm 0 W/m2
07:12 33.8 °F /  1 °C 32.7 °F /  0.4 °C 30.5in /  1033.9hPa West 2mph /  3.2km/h 7mph /  11.3km/h 96% 0in /  0.0mm 0 W/m2
07:17 33.8 °F /  1 °C 32.7 °F /  0.4 °C 30.5in /  1033.9hPa WNW 4mph /  6.4km/h 6mph /  9.7km/h 96% 0in /  0.0mm 0 W/m2
07:22 33.8 °F /  1 °C 32.7 °F /  0.4 °C 30.5in /  1033.9hPa WNW 2.9mph /  4.7km/h 6mph /  9.7km/h 96% 0in /  0.0mm 0 W/m2
07:27 33.8 °F /  1 °C 32.7 °F /  0.4 °C 30.5in /  1033.9hPa WSW 2mph /  3.2km/h 3mph /  4.8km/h 96% 0in /  0.0mm 0 W/m2
07:32 33.8 °F /  1 °C 32.7 °F /  0.4 °C 30.5in /  1033.9hPa WNW 4.9mph /  7.9km/h 10mph /  16.1km/h 96% 0in /  0.0mm 0 W/m2
07:37 33.8 °F /  1 °C 32.7 °F /  0.4 °C 30.5in /  1033.9hPa WSW 2.9mph /  4.7km/h 8mph /  12.9km/h 96% 0in /  0.0mm 0 W/m2
07:42 33.8 °F /  1 °C 32.7 °F /  0.4 °C 30.5in /  1034.2hPa WNW 4mph /  6.4km/h 10mph /  16.1km/h 96% 0in /  0.0mm 0 W/m2
07:47 33.8 °F /  1 °C 32.7 °F /  0.4 °C 30.5in /  1033.9hPa West 0.9mph /  1.4km/h 9mph /  14.5km/h 96% 0in /  0.0mm 0 W/m2
07:52 33.8 °F /  1 °C 32.7 °F /  0.4 °C 30.5in /  1034.2hPa NW 2.9mph /  4.7km/h 10mph /  16.1km/h 96% 0in /  0.0mm 0 W/m2
07:57 34 °F /  1.1 °C 32.9 °F /  0.5 °C 30.5in /  1034.2hPa NW 0.9mph /  1.4km/h 7mph /  11.3km/h 96% 0in /  0.0mm 0 W/m2
08:02 34 °F /  1.1 °C 32.9 °F /  0.5 °C 30.5in /  1033.9hPa WNW 6mph /  9.7km/h 9mph /  14.5km/h 96% 0in /  0.0mm 0 W/m2
08:07 34 °F /  1.1 °C 32.9 °F /  0.5 °C 30.5in /  1034.2hPa NNW 2mph /  3.2km/h 6mph /  9.7km/h 96% 0in /  0.0mm 0 W/m2
08:12 34 °F /  1.1 °C 32.9 °F /  0.5 °C 30.6in /  1034.5hPa NW 2mph /  3.2km/h 2mph /  3.2km/h 96% 0in /  0.0mm 0 W/m2
08:17 34 °F /  1.1 °C 32.9 °F /  0.5 °C 30.6in /  1034.5hPa WNW 2.9mph /  4.7km/h 5mph /  8km/h 96% 0in /  0.0mm 0 W/m2
08:22 34 °F /  1.1 °C 32.9 °F /  0.5 °C 30.6in /  1034.9hPa WNW 4mph /  6.4km/h 9mph /  14.5km/h 96% 0in /  0.0mm 0 W/m2
08:27 34 °F /  1.1 °C 32.9 °F /  0.5 °C 30.6in /  1035.2hPa West 4mph /  6.4km/h 8mph /  12.9km/h 96% 0in /  0.0mm 0 W/m2
08:32 34 °F /  1.1 °C 32.9 °F /  0.5 °C 30.6in /  1034.9hPa ESE 0.9mph /  1.4km/h 4mph /  6.4km/h 96% 0in /  0.0mm 0 W/m2
08:37 34 °F /  1.1 °C 32.9 °F /  0.5 °C 30.6in /  1034.9hPa WNW 2mph /  3.2km/h 4mph /  6.4km/h 96% 0in /  0.0mm 0 W/m2
08:42 34.2 °F /  1.2 °C 33.1 °F /  0.6 °C 30.6in /  1034.9hPa West 6mph /  9.7km/h 7mph /  11.3km/h 96% 0in /  0.0mm 0 W/m2
08:47 34.2 °F /  1.2 °C 33.1 °F /  0.6 °C 30.6in /  1034.9hPa West 0.9mph /  1.4km/h 3mph /  4.8km/h 96% 0in /  0.0mm 5 W/m2
08:52 34.2 °F /  1.2 °C 33.1 °F /  0.6 °C 30.6in /  1035.2hPa NW 2mph /  3.2km/h 4mph /  6.4km/h 96% 0in /  0.0mm 5 W/m2
08:57 34.2 °F /  1.2 °C 33.1 °F /  0.6 °C 30.6in /  1035.2hPa West 6mph /  9.7km/h 6mph /  9.7km/h 96% 0in /  0.0mm 7 W/m2
09:02 34.3 °F /  1.3 °C 33.3 °F /  0.7 °C 30.6in /  1035.2hPa SW 4mph /  6.4km/h 6mph /  9.7km/h 96% 0in /  0.0mm 9 W/m2
09:07 34.3 °F /  1.3 °C 33.3 °F /  0.7 °C 30.6in /  1035.2hPa NW 2.9mph /  4.7km/h 4mph /  6.4km/h 96% 0in /  0.0mm 12 W/m2
09:12 34.3 °F /  1.3 °C 33.3 °F /  0.7 °C 30.6in /  1035.2hPa NW 0.9mph /  1.4km/h 8mph /  12.9km/h 96% 0in /  0.0mm 14 W/m2
09:17 34.3 °F /  1.3 °C 33.3 °F /  0.7 °C 30.6in /  1035.2hPa NNW 2mph /  3.2km/h 4mph /  6.4km/h 96% 0in /  0.0mm 23 W/m2
09:22 34.3 °F /  1.3 °C 33.3 °F /  0.7 °C 30.6in /  1035.2hPa WNW 0.9mph /  1.4km/h 8mph /  12.9km/h 96% 0in /  0.0mm 28 W/m2
09:27 34.5 °F /  1.4 °C 33.4 °F /  0.8 °C 30.6in /  1035.6hPa NNW 2.9mph /  4.7km/h 3mph /  4.8km/h 96% 0in /  0.0mm 28 W/m2
09:32 34.5 °F /  1.4 °C 33.4 °F /  0.8 °C 30.6in /  1035.6hPa NW 0.9mph /  1.4km/h 4mph /  6.4km/h 96% 0in /  0.0mm 28 W/m2
09:37 34.5 °F /  1.4 °C 33.3 °F /  0.7 °C 30.6in /  1035.6hPa WNW 0.9mph /  1.4km/h 1mph /  1.6km/h 95% 0in /  0.0mm 28 W/m2
09:42 34.7 °F /  1.5 °C 33.4 °F /  0.8 °C 30.6in /  1035.6hPa NNE 0.9mph /  1.4km/h 3mph /  4.8km/h 95% 0in /  0.0mm 23 W/m2
09:47 34.7 °F /  1.5 °C 33.6 °F /  0.9 °C 30.6in /  1035.6hPa NNW 4mph /  6.4km/h 4mph /  6.4km/h 96% 0in /  0.0mm 19 W/m2
09:52 34.9 °F /  1.6 °C 33.8 °F /  1 °C 30.6in /  1035.6hPa NNW 0.9mph /  1.4km/h 4mph /  6.4km/h 96% 0in /  0.0mm 21 W/m2
09:57 34.9 °F /  1.6 °C 33.8 °F /  1 °C 30.6in /  1035.2hPa WNW 2mph /  3.2km/h 5mph /  8km/h 96% 0in /  0.0mm 25 W/m2
10:02 34.9 °F /  1.6 °C 33.8 °F /  1 °C 30.6in /  1035.2hPa NNW 2mph /  3.2km/h 2mph /  3.2km/h 96% 0in /  0.0mm 30 W/m2
10:07 34.9 °F /  1.6 °C 33.6 °F /  0.9 °C 30.6in /  1035.6hPa WNW 4.9mph /  7.9km/h 6mph /  9.7km/h 95% 0in /  0.0mm 40 W/m2
10:12 34.9 °F /  1.6 °C 33.6 °F /  0.9 °C 30.6in /  1035.6hPa WSW 4mph /  6.4km/h 11mph /  17.7km/h 95% 0in /  0.0mm 62 W/m2
10:17 35.1 °F /  1.7 °C 33.8 °F /  1 °C 30.6in /  1035.6hPa West 6mph /  9.7km/h 9mph /  14.5km/h 95% 0in /  0.0mm 72 W/m2
10:22 35.2 °F /  1.8 °C 34 °F /  1.1 °C 30.6in /  1035.6hPa WNW 10.1mph /  16.3km/h 11mph /  17.7km/h 95% 0in /  0.0mm 83 W/m2
10:27 35.2 °F /  1.8 °C 34 °F /  1.1 °C 30.6in /  1035.6hPa WNW 2.9mph /  4.7km/h 7mph /  11.3km/h 95% 0in /  0.0mm 86 W/m2
10:32 35.4 °F /  1.9 °C 34.2 °F /  1.2 °C 30.6in /  1035.2hPa WNW 4.9mph /  7.9km/h 11mph /  17.7km/h 95% 0in /  0.0mm 67 W/m2
10:37 35.4 °F /  1.9 °C 34.2 °F /  1.2 °C 30.6in /  1035.6hPa West 6mph /  9.7km/h 7mph /  11.3km/h 95% 0in /  0.0mm 62 W/m2
10:42 35.4 °F /  1.9 °C 34.2 °F /  1.2 °C 30.6in /  1035.2hPa West 6mph /  9.7km/h 8mph /  12.9km/h 95% 0in /  0.0mm 77 W/m2
10:47 35.6 °F /  2 °C 34.3 °F /  1.3 °C 30.6in /  1035.6hPa WNW 2.9mph /  4.7km/h 8mph /  12.9km/h 95% 0in /  0.0mm 70 W/m2
10:52 35.6 °F /  2 °C 34.3 °F /  1.3 °C 30.6in /  1035.6hPa NW 4.9mph /  7.9km/h 7mph /  11.3km/h 95% 0in /  0.0mm 53 W/m2
10:57 35.6 °F /  2 °C 34.3 °F /  1.3 °C 30.6in /  1035.9hPa WNW 6.9mph /  11.1km/h 8mph /  12.9km/h 95% 0in /  0.0mm 42 W/m2
11:02 35.8 °F /  2.1 °C 34.5 °F /  1.4 °C 30.6in /  1035.9hPa West 2.9mph /  4.7km/h 7mph /  11.3km/h 95% 0in /  0.0mm 42 W/m2
11:07 35.8 °F /  2.1 °C 34.5 °F /  1.4 °C 30.6in /  1036.2hPa NW 2mph /  3.2km/h 3mph /  4.8km/h 95% 0in /  0.0mm 58 W/m2
11:12 35.8 °F /  2.1 °C 34.5 °F /  1.4 °C 30.6in /  1036.2hPa West 2.9mph /  4.7km/h 8mph /  12.9km/h 95% 0in /  0.0mm 51 W/m2
11:17 35.8 °F /  2.1 °C 34.5 °F /  1.4 °C 30.6in /  1035.9hPa West 2mph /  3.2km/h 8mph /  12.9km/h 95% 0in /  0.0mm 70 W/m2
11:22 36 °F /  2.2 °C 34.7 °F /  1.5 °C 30.6in /  1036.2hPa WNW 4mph /  6.4km/h 10mph /  16.1km/h 95% 0in /  0.0mm 56 W/m2
11:27 36 °F /  2.2 °C 34.7 °F /  1.5 °C 30.6in /  1036.2hPa NW 2.9mph /  4.7km/h 7mph /  11.3km/h 95% 0in /  0.0mm 60 W/m2
11:32 36 °F /  2.2 °C 34.7 °F /  1.5 °C 30.6in /  1036.2hPa NW 2mph /  3.2km/h 6mph /  9.7km/h 95% 0in /  0.0mm 65 W/m2
11:37 36.1 °F /  2.3 °C 34.9 °F /  1.6 °C 30.6in /  1035.9hPa WNW 4.9mph /  7.9km/h 7mph /  11.3km/h 95% 0in /  0.0mm 98 W/m2
11:42 36.1 °F /  2.3 °C 34.9 °F /  1.6 °C 30.6in /  1036.2hPa NW 4mph /  6.4km/h 6mph /  9.7km/h 95% 0in /  0.0mm 81 W/m2
11:47 36.3 °F /  2.4 °C 35.1 °F /  1.7 °C 30.6in /  1036.2hPa WNW 2mph /  3.2km/h 6mph /  9.7km/h 95% 0in /  0.0mm 93 W/m2
11:52 36.3 °F /  2.4 °C 35.1 °F /  1.7 °C 30.6in /  1036.2hPa WSW 6mph /  9.7km/h 9mph /  14.5km/h 95% 0in /  0.0mm 88 W/m2
11:57 36.3 °F /  2.4 °C 35.1 °F /  1.7 °C 30.6in /  1036.2hPa West 4mph /  6.4km/h 4mph /  6.4km/h 95% 0in /  0.0mm 90 W/m2
12:02 36.5 °F /  2.5 °C 35.2 °F /  1.8 °C 30.6in /  1036.6hPa NW 2.9mph /  4.7km/h 9mph /  14.5km/h 95% 0in /  0.0mm 86 W/m2
12:07 36.7 °F /  2.6 °C 35.4 °F /  1.9 °C 30.6in /  1036.6hPa WNW 4.9mph /  7.9km/h 7mph /  11.3km/h 95% 0in /  0.0mm 95 W/m2
12:12 36.9 °F /  2.7 °C 35.6 °F /  2 °C 30.6in /  1036.6hPa West 2mph /  3.2km/h 8mph /  12.9km/h 95% 0in /  0.0mm 105 W/m2
12:17 36.9 °F /  2.7 °C 35.6 °F /  2 °C 30.6in /  1036.2hPa NW 4mph /  6.4km/h 7mph /  11.3km/h 95% 0in /  0.0mm 104 W/m2
12:23 36.9 °F /  2.7 °C 35.6 °F /  2 °C 30.6in /  1036.2hPa West 4mph /  6.4km/h 9mph /  14.5km/h 95% 0in /  0.0mm 104 W/m2
12:28 37 °F /  2.8 °C 35.8 °F /  2.1 °C 30.6in /  1036.2hPa WNW 4mph /  6.4km/h 8mph /  12.9km/h 95% 0in /  0.0mm 105 W/m2
12:33 37 °F /  2.8 °C 35.8 °F /  2.1 °C 30.6in /  1036.2hPa WNW 4mph /  6.4km/h 9mph /  14.5km/h 95% 0in /  0.0mm 114 W/m2
12:38 37 °F /  2.8 °C 35.8 °F /  2.1 °C 30.6in /  1036.2hPa NW 4mph /  6.4km/h 8mph /  12.9km/h 95% 0in /  0.0mm 105 W/m2
12:43 37 °F /  2.8 °C 35.4 °F /  1.9 °C 30.6in /  1036.2hPa West 6mph /  9.7km/h 10mph /  16.1km/h 94% 0in /  0.0mm 107 W/m2
12:48 37.2 °F /  2.9 °C 36 °F /  2.2 °C 30.6in /  1035.9hPa West 2mph /  3.2km/h 5mph /  8km/h 95% 0in /  0.0mm 109 W/m2
12:53 37.2 °F /  2.9 °C 36 °F /  2.2 °C 30.6in /  1035.9hPa WNW 2.9mph /  4.7km/h 6mph /  9.7km/h 95% 0in /  0.0mm 113 W/m2
12:58 37.2 °F /  2.9 °C 36 °F /  2.2 °C 30.6in /  1035.9hPa NW 4.9mph /  7.9km/h 5mph /  8km/h 95% 0in /  0.0mm 105 W/m2
13:03 37.4 °F /  3 °C 35.8 °F /  2.1 °C 30.6in /  1035.9hPa West 2mph /  3.2km/h 8mph /  12.9km/h 94% 0in /  0.0mm 83 W/m2
13:08 37.6 °F /  3.1 °C 36 °F /  2.2 °C 30.6in /  1035.6hPa NNW 4mph /  6.4km/h 7mph /  11.3km/h 94% 0in /  0.0mm 77 W/m2
13:13 37.6 °F /  3.1 °C 36 °F /  2.2 °C 30.6in /  1035.6hPa NW 2mph /  3.2km/h 8mph /  12.9km/h 94% 0in /  0.0mm 77 W/m2
13:18 37.6 °F /  3.1 °C 36.3 °F /  2.4 °C 30.6in /  1036.2hPa West 2mph /  3.2km/h 7mph /  11.3km/h 95% 0in /  0.0mm 62 W/m2
13:23 37.8 °F /  3.2 °C 36.5 °F /  2.5 °C 30.6in /  1036.2hPa WNW 2mph /  3.2km/h 4mph /  6.4km/h 95% 0in /  0.0mm 62 W/m2
13:28 37.8 °F /  3.2 °C 36.5 °F /  2.5 °C 30.6in /  1036.2hPa WSW 4mph /  6.4km/h 8mph /  12.9km/h 95% 0in /  0.0mm 65 W/m2
13:33 37.8 °F /  3.2 °C 36.5 °F /  2.5 °C 30.6in /  1036.2hPa West 2mph /  3.2km/h 7mph /  11.3km/h 95% 0in /  0.0mm 67 W/m2
13:38 37.8 °F /  3.2 °C 36.5 °F /  2.5 °C 30.6in /  1036.2hPa WSW 2mph /  3.2km/h 8mph /  12.9km/h 95% 0in /  0.0mm 74 W/m2
13:43 37.8 °F /  3.2 °C 36.5 °F /  2.5 °C 30.6in /  1036.2hPa WNW 4mph /  6.4km/h 8mph /  12.9km/h 95% 0in /  0.0mm 70 W/m2
13:48 37.8 °F /  3.2 °C 36.5 °F /  2.5 °C 30.6in /  1036.2hPa NW 2mph /  3.2km/h 3mph /  4.8km/h 95% 0in /  0.0mm 54 W/m2
13:53 37.8 °F /  3.2 °C 36.5 °F /  2.5 °C 30.6in /  1036.2hPa WNW 2.9mph /  4.7km/h 8mph /  12.9km/h 95% 0in /  0.0mm 58 W/m2
13:58 37.8 °F /  3.2 °C 36.5 °F /  2.5 °C 30.6in /  1036.2hPa West 4mph /  6.4km/h 7mph /  11.3km/h 95% 0in /  0.0mm 81 W/m2
14:03 37.8 °F /  3.2 °C 36.5 °F /  2.5 °C 30.6in /  1036.2hPa WSW 2.9mph /  4.7km/h 6mph /  9.7km/h 95% 0in /  0.0mm 69 W/m2
14:08 37.9 °F /  3.3 °C 36.7 °F /  2.6 °C 30.6in /  1035.9hPa WSW 4mph /  6.4km/h 8mph /  12.9km/h 95% 0in /  0.0mm 69 W/m2
14:13 37.9 °F /  3.3 °C 36.7 °F /  2.6 °C 30.6in /  1035.9hPa WSW 4.9mph /  7.9km/h 7mph /  11.3km/h 95% 0in /  0.0mm 60 W/m2
14:18 37.9 °F /  3.3 °C 36.7 °F /  2.6 °C 30.6in /  1035.6hPa WNW 4.9mph /  7.9km/h 7mph /  11.3km/h 95% 0in /  0.0mm 58 W/m2
14:23 37.9 °F /  3.3 °C 36.7 °F /  2.6 °C 30.6in /  1035.9hPa WNW 4.9mph /  7.9km/h 8mph /  12.9km/h 95% 0in /  0.0mm 58 W/m2
14:28 37.9 °F /  3.3 °C 36.7 °F /  2.6 °C 30.6in /  1035.9hPa WNW 6mph /  9.7km/h 7mph /  11.3km/h 95% 0in /  0.0mm 58 W/m2
14:33 37.9 °F /  3.3 °C 36.7 °F /  2.6 °C 30.6in /  1035.9hPa NW 2.9mph /  4.7km/h 6mph /  9.7km/h 95% 0in /  0.0mm 62 W/m2
14:38 38.1 °F /  3.4 °C 36.9 °F /  2.7 °C 30.6in /  1036.2hPa West 2mph /  3.2km/h 7mph /  11.3km/h 95% 0in /  0.0mm 77 W/m2
14:43 38.1 °F /  3.4 °C 36.9 °F /  2.7 °C 30.6in /  1035.9hPa WNW 2.9mph /  4.7km/h 6mph /  9.7km/h 95% 0in /  0.0mm 79 W/m2
14:48 38.1 °F /  3.4 °C 36.9 °F /  2.7 °C 30.6in /  1035.9hPa WNW 4mph /  6.4km/h 9mph /  14.5km/h 95% 0in /  0.0mm 72 W/m2
14:53 37.9 °F /  3.3 °C 36.7 °F /  2.6 °C 30.6in /  1035.9hPa West 6mph /  9.7km/h 9mph /  14.5km/h 95% 0in /  0.0mm 97 W/m2
14:58 38.1 °F /  3.4 °C 36.9 °F /  2.7 °C 30.6in /  1035.6hPa West 6.9mph /  11.1km/h 13mph /  20.9km/h 95% 0in /  0.0mm 79 W/m2
15:03 38.1 °F /  3.4 °C 36.9 °F /  2.7 °C 30.6in /  1035.6hPa NW 2.9mph /  4.7km/h 8mph /  12.9km/h 95% 0in /  0.0mm 67 W/m2
15:08 38.3 °F /  3.5 °C 37 °F /  2.8 °C 30.6in /  1035.6hPa West 6.9mph /  11.1km/h 13mph /  20.9km/h 95% 0in /  0.0mm 86 W/m2
15:13 38.3 °F /  3.5 °C 37 °F /  2.8 °C 30.6in /  1035.6hPa WNW 4.9mph /  7.9km/h 10mph /  16.1km/h 95% 0in /  0.0mm 72 W/m2
15:18 38.3 °F /  3.5 °C 37 °F /  2.8 °C 30.6in /  1035.6hPa West 8.1mph /  13km/h 12mph /  19.3km/h 95% 0in /  0.0mm 77 W/m2
15:23 38.5 °F /  3.6 °C 37.2 °F /  2.9 °C 30.6in /  1035.9hPa WNW 4mph /  6.4km/h 10mph /  16.1km/h 95% 0in /  0.0mm 69 W/m2
15:28 38.5 °F /  3.6 °C 37.2 °F /  2.9 °C 30.6in /  1035.9hPa West 4mph /  6.4km/h 9mph /  14.5km/h 95% 0in /  0.0mm 69 W/m2
15:33 38.5 °F /  3.6 °C 37.2 °F /  2.9 °C 30.6in /  1035.6hPa WSW 2.9mph /  4.7km/h 8mph /  12.9km/h 95% 0in /  0.0mm 53 W/m2
15:38 38.5 °F /  3.6 °C 37.2 °F /  2.9 °C 30.6in /  1035.9hPa NW 4.9mph /  7.9km/h 13mph /  20.9km/h 95% 0in /  0.0mm 69 W/m2
15:43 38.5 °F /  3.6 °C 37.2 °F /  2.9 °C 30.6in /  1035.9hPa WNW 2.9mph /  4.7km/h 11mph /  17.7km/h 95% 0in /  0.0mm 63 W/m2
15:48 38.7 °F /  3.7 °C 37.4 °F /  3 °C 30.6in /  1035.9hPa West 2.9mph /  4.7km/h 9mph /  14.5km/h 95% 0in /  0.0mm 58 W/m2
15:53 38.7 °F /  3.7 °C 37.4 °F /  3 °C 30.6in /  1035.9hPa West 8.1mph /  13km/h 11mph /  17.7km/h 95% 0in /  0.0mm 56 W/m2
15:58 38.7 °F /  3.7 °C 37.4 °F /  3 °C 30.6in /  1035.9hPa WNW 4mph /  6.4km/h 12mph /  19.3km/h 95% 0in /  0.0mm 54 W/m2
16:03 38.8 °F /  3.8 °C 37.6 °F /  3.1 °C 30.6in /  1035.9hPa WSW 4.9mph /  7.9km/h 10mph /  16.1km/h 95% 0in /  0.0mm 42 W/m2
16:08 38.8 °F /  3.8 °C 37.6 °F /  3.1 °C 30.6in /  1035.6hPa WNW 4mph /  6.4km/h 11mph /  17.7km/h 95% 0in /  0.0mm 39 W/m2
16:13 38.8 °F /  3.8 °C 37.2 °F /  2.9 °C 30.6in /  1035.9hPa WNW 6mph /  9.7km/h 8mph /  12.9km/h 94% 0in /  0.0mm 23 W/m2
16:18 39 °F /  3.9 °C 37.8 °F /  3.2 °C 30.6in /  1035.9hPa WNW 2.9mph /  4.7km/h 11mph /  17.7km/h 95% 0in /  0.0mm 19 W/m2
16:23 39 °F /  3.9 °C 37.4 °F /  3 °C 30.6in /  1035.9hPa NW 6.9mph /  11.1km/h 10mph /  16.1km/h 94% 0in /  0.0mm 16 W/m2
16:28 39 °F /  3.9 °C 37.4 °F /  3 °C 30.6in /  1036.2hPa WNW 2mph /  3.2km/h 6mph /  9.7km/h 94% 0in /  0.0mm 11 W/m2
16:33 39 °F /  3.9 °C 37.4 °F /  3 °C 30.6in /  1036.2hPa WSW 2.9mph /  4.7km/h 7mph /  11.3km/h 94% 0in /  0.0mm 9 W/m2
16:38 39 °F /  3.9 °C 37.4 °F /  3 °C 30.6in /  1035.9hPa WNW 2mph /  3.2km/h 3mph /  4.8km/h 94% 0in /  0.0mm 7 W/m2
16:43 39 °F /  3.9 °C 37.4 °F /  3 °C 30.6in /  1036.2hPa NW 0.9mph /  1.4km/h 4mph /  6.4km/h 94% 0in /  0.0mm 7 W/m2
16:48 39 °F /  3.9 °C 37.4 °F /  3 °C 30.6in /  1036.2hPa WNW 4mph /  6.4km/h 8mph /  12.9km/h 94% 0in /  0.0mm 5 W/m2
16:53 39 °F /  3.9 °C 37.4 °F /  3 °C 30.6in /  1035.9hPa WNW 8.1mph /  13km/h 8mph /  12.9km/h 94% 0in /  0.0mm 5 W/m2
16:58 39 °F /  3.9 °C 37.4 °F /  3 °C 30.6in /  1035.9hPa West 2.9mph /  4.7km/h 10mph /  16.1km/h 94% 0in /  0.0mm 5 W/m2
17:03 39 °F /  3.9 °C 37.4 °F /  3 °C 30.6in /  1035.9hPa WNW 2.9mph /  4.7km/h 8mph /  12.9km/h 94% 0in /  0.0mm 0 W/m2
17:08 39 °F /  3.9 °C 37.4 °F /  3 °C 30.6in /  1035.9hPa WNW 2.9mph /  4.7km/h 5mph /  8km/h 94% 0in /  0.0mm 0 W/m2
17:13 39 °F /  3.9 °C 37.4 °F /  3 °C 30.6in /  1036.2hPa WNW 2mph /  3.2km/h 4mph /  6.4km/h 94% 0in /  0.0mm 0 W/m2
17:18 38.8 °F /  3.8 °C 37.2 °F /  2.9 °C 30.6in /  1036.2hPa NW 2.9mph /  4.7km/h 3mph /  4.8km/h 94% 0in /  0.0mm 0 W/m2
17:23 38.8 °F /  3.8 °C 37.2 °F /  2.9 °C 30.6in /  1036.2hPa NW 0.9mph /  1.4km/h 5mph /  8km/h 94% 0in /  0.0mm 0 W/m2
17:28 39 °F /  3.9 °C 37.8 °F /  3.2 °C 30.6in /  1036.2hPa SSW 2.9mph /  4.7km/h 5mph /  8km/h 95% 0in /  0.0mm 0 W/m2
17:33 39 °F /  3.9 °C 37.8 °F /  3.2 °C 30.6in /  1036.2hPa West 2.9mph /  4.7km/h 3mph /  4.8km/h 95% 0in /  0.0mm 0 W/m2
17:38 39 °F /  3.9 °C 37.8 °F /  3.2 °C 30.6in /  1036.2hPa West 2mph /  3.2km/h 5mph /  8km/h 95% 0in /  0.0mm 0 W/m2
17:43 39 °F /  3.9 °C 37.8 °F /  3.2 °C 30.6in /  1036.2hPa WNW 2mph /  3.2km/h 2mph /  3.2km/h 95% 0in /  0.0mm 0 W/m2
17:48 39 °F /  3.9 °C 37.8 °F /  3.2 °C 30.6in /  1036.6hPa WSW 2mph /  3.2km/h 7mph /  11.3km/h 95% 0in /  0.0mm 0 W/m2
17:53 39 °F /  3.9 °C 37.8 °F /  3.2 °C 30.6in /  1036.6hPa West 2.9mph /  4.7km/h 7mph /  11.3km/h 95% 0in /  0.0mm 0 W/m2
17:58 39 °F /  3.9 °C 37.8 °F /  3.2 °C 30.6in /  1036.6hPa WNW 4mph /  6.4km/h 7mph /  11.3km/h 95% 0in /  0.0mm 0 W/m2
18:03 39 °F /  3.9 °C 37.8 °F /  3.2 °C 30.6in /  1036.6hPa WNW 2mph /  3.2km/h 8mph /  12.9km/h 95% 0in /  0.0mm 0 W/m2
18:08 39.2 °F /  4 °C 37.9 °F /  3.3 °C 30.6in /  1036.6hPa WNW 2.9mph /  4.7km/h 7mph /  11.3km/h 95% 0in /  0.0mm 0 W/m2
18:13 39.4 °F /  4.1 °C 37.8 °F /  3.2 °C 30.6in /  1036.6hPa West 6mph /  9.7km/h 10mph /  16.1km/h 94% 0in /  0.0mm 0 W/m2
18:18 39.4 °F /  4.1 °C 37.8 °F /  3.2 °C 30.6in /  1036.6hPa West 6mph /  9.7km/h 10mph /  16.1km/h 94% 0in /  0.0mm 0 W/m2
18:23 39.4 °F /  4.1 °C 37.8 °F /  3.2 °C 30.6in /  1036.6hPa West 2.9mph /  4.7km/h 6mph /  9.7km/h 94% 0in /  0.0mm 0 W/m2
18:28 39.6 °F /  4.2 °C 37.9 °F /  3.3 °C 30.6in /  1036.6hPa NW 4mph /  6.4km/h 4mph /  6.4km/h 94% 0in /  0.0mm 0 W/m2
18:33 39.6 °F /  4.2 °C 37.9 °F /  3.3 °C 30.6in /  1036.6hPa WSW 2.9mph /  4.7km/h 7mph /  11.3km/h 94% 0in /  0.0mm 0 W/m2
18:38 39.6 °F /  4.2 °C 37.9 °F /  3.3 °C 30.6in /  1036.9hPa West 0.9mph /  1.4km/h 4mph /  6.4km/h 94% 0in /  0.0mm 0 W/m2
18:43 39.6 °F /  4.2 °C 37.9 °F /  3.3 °C 30.6in /  1036.9hPa NW 2.9mph /  4.7km/h 7mph /  11.3km/h 94% 0in /  0.0mm 0 W/m2
18:48 39.6 °F /  4.2 °C 37.9 °F /  3.3 °C 30.6in /  1036.9hPa WSW 2mph /  3.2km/h 3mph /  4.8km/h 94% 0in /  0.0mm 0 W/m2
18:53 39.6 °F /  4.2 °C 37.9 °F /  3.3 °C 30.6in /  1036.9hPa WSW 4mph /  6.4km/h 8mph /  12.9km/h 94% 0in /  0.0mm 0 W/m2
18:58 39.6 °F /  4.2 °C 37.9 °F /  3.3 °C 30.6in /  1036.9hPa West 2mph /  3.2km/h 8mph /  12.9km/h 94% 0in /  0.0mm 0 W/m2
19:03 39.6 °F /  4.2 °C 37.9 °F /  3.3 °C 30.6in /  1036.9hPa NW 2mph /  3.2km/h 4mph /  6.4km/h 94% 0in /  0.0mm 0 W/m2
19:08 39.6 °F /  4.2 °C 37.9 °F /  3.3 °C 30.6in /  1036.9hPa West 0.9mph /  1.4km/h 7mph /  11.3km/h 94% 0in /  0.0mm 0 W/m2
19:13 39.6 °F /  4.2 °C 37.9 °F /  3.3 °C 30.6in /  1036.9hPa WNW 2mph /  3.2km/h 6mph /  9.7km/h 94% 0in /  0.0mm 0 W/m2
19:18 39.7 °F /  4.3 °C 38.1 °F /  3.4 °C 30.6in /  1037.2hPa NW 2mph /  3.2km/h 4mph /  6.4km/h 94% 0in /  0.0mm 0 W/m2
19:23 39.7 °F /  4.3 °C 38.1 °F /  3.4 °C 30.6in /  1036.9hPa West 0.9mph /  1.4km/h 6mph /  9.7km/h 94% 0in /  0.0mm 0 W/m2
19:28 39.6 °F /  4.2 °C 37.9 °F /  3.3 °C 30.6in /  1036.9hPa West 6mph /  9.7km/h 7mph /  11.3km/h 94% 0in /  0.0mm 0 W/m2
19:33 39.6 °F /  4.2 °C 37.9 °F /  3.3 °C 30.6in /  1036.6hPa West 2mph /  3.2km/h 4mph /  6.4km/h 94% 0in /  0.0mm 0 W/m2
19:38 39.6 °F /  4.2 °C 37.9 °F /  3.3 °C 30.6in /  1036.6hPa West 6mph /  9.7km/h 7mph /  11.3km/h 94% 0in /  0.0mm 0 W/m2
19:43 39.6 °F /  4.2 °C 37.9 °F /  3.3 °C 30.6in /  1036.6hPa West 2.9mph /  4.7km/h 3mph /  4.8km/h 94% 0in /  0.0mm 0 W/m2
19:48 39.6 °F /  4.2 °C 37.9 °F /  3.3 °C 30.6in /  1036.6hPa West 2mph /  3.2km/h 4mph /  6.4km/h 94% 0in /  0.0mm 0 W/m2
19:53 39.6 °F /  4.2 °C 37.9 °F /  3.3 °C 30.6in /  1036.6hPa SW 2mph /  3.2km/h 4mph /  6.4km/h 94% 0in /  0.0mm 0 W/m2
19:58 39.6 °F /  4.2 °C 37.9 °F /  3.3 °C 30.6in /  1036.6hPa WNW 2.9mph /  4.7km/h 4mph /  6.4km/h 94% 0in /  0.0mm 0 W/m2
20:03 39.6 °F /  4.2 °C 37.9 °F /  3.3 °C 30.6in /  1036.9hPa NW 2mph /  3.2km/h 4mph /  6.4km/h 94% 0in /  0.0mm 0 W/m2
20:08 39.6 °F /  4.2 °C 37.9 °F /  3.3 °C 30.6in /  1036.9hPa West 2.9mph /  4.7km/h 4mph /  6.4km/h 94% 0in /  0.0mm 0 W/m2
20:13 39.6 °F /  4.2 °C 37.9 °F /  3.3 °C 30.6in /  1036.9hPa Calm   3mph /  4.8km/h 94% 0in /  0.0mm 0 W/m2
20:18 39.6 °F /  4.2 °C 37.9 °F /  3.3 °C 30.6in /  1036.9hPa West 0.9mph /  1.4km/h 3mph /  4.8km/h 94% 0in /  0.0mm 0 W/m2
20:23 39.6 °F /  4.2 °C 37.9 °F /  3.3 °C 30.6in /  1036.9hPa West 2mph /  3.2km/h 3mph /  4.8km/h 94% 0in /  0.0mm 0 W/m2
20:28 39.6 °F /  4.2 °C 37.9 °F /  3.3 °C 30.6in /  1036.9hPa North 0.9mph /  1.4km/h 3mph /  4.8km/h 94% 0in /  0.0mm 0 W/m2
20:34 39.6 °F /  4.2 °C 37.9 °F /  3.3 °C 30.6in /  1037.2hPa Calm   3mph /  4.8km/h 94% 0in /  0.0mm 0 W/m2
20:39 39.6 °F /  4.2 °C 37.9 °F /  3.3 °C 30.6in /  1037.2hPa WNW 0.9mph /  1.4km/h 3mph /  4.8km/h 94% 0in /  0.0mm 0 W/m2
20:44 39.6 °F /  4.2 °C 37.9 °F /  3.3 °C 30.6in /  1037.2hPa WSW 0.9mph /  1.4km/h 3mph /  4.8km/h 94% 0in /  0.0mm 0 W/m2
20:49 39.6 °F /  4.2 °C 37.9 °F /  3.3 °C 30.6in /  1037.2hPa West 2mph /  3.2km/h 4mph /  6.4km/h 94% 0in /  0.0mm 0 W/m2
20:54 39.7 °F /  4.3 °C 38.1 °F /  3.4 °C 30.6in /  1037.2hPa West 2.9mph /  4.7km/h 3mph /  4.8km/h 94% 0in /  0.0mm 0 W/m2
20:59 39.7 °F /  4.3 °C 38.1 °F /  3.4 °C 30.6in /  1037.2hPa WNW 0.9mph /  1.4km/h 4mph /  6.4km/h 94% 0in /  0.0mm 0 W/m2
21:04 39.7 °F /  4.3 °C 38.1 °F /  3.4 °C 30.6in /  1037.2hPa West 4mph /  6.4km/h 4mph /  6.4km/h 94% 0in /  0.0mm 0 W/m2
21:09 39.7 °F /  4.3 °C 38.1 °F /  3.4 °C 30.6in /  1037.2hPa WSW 2.9mph /  4.7km/h 4mph /  6.4km/h 94% 0in /  0.0mm 0 W/m2
21:14 39.9 °F /  4.4 °C 38.3 °F /  3.5 °C 30.6in /  1037.2hPa West 2mph /  3.2km/h 6mph /  9.7km/h 94% 0in /  0.0mm 0 W/m2
21:19 39.9 °F /  4.4 °C 38.3 °F /  3.5 °C 30.6in /  1037.2hPa WNW 2mph /  3.2km/h 3mph /  4.8km/h 94% 0in /  0.0mm 0 W/m2
21:24 39.9 °F /  4.4 °C 38.3 °F /  3.5 °C 30.6in /  1037.2hPa WNW 0.9mph /  1.4km/h 3mph /  4.8km/h 94% 0in /  0.0mm 0 W/m2
21:29 39.9 °F /  4.4 °C 38.1 °F /  3.4 °C 30.6in /  1037.2hPa WNW 2.9mph /  4.7km/h 7mph /  11.3km/h 93% 0in /  0.0mm 0 W/m2
21:34 39.9 °F /  4.4 °C 38.1 °F /  3.4 °C 30.6in /  1037.6hPa NW 2mph /  3.2km/h 2mph /  3.2km/h 93% 0in /  0.0mm 0 W/m2
21:39 39.9 °F /  4.4 °C 38.1 °F /  3.4 °C 30.6in /  1037.6hPa Calm     93% 0in /  0.0mm 0 W/m2
21:44 39.9 °F /  4.4 °C 38.1 °F /  3.4 °C 30.6in /  1037.6hPa Calm   2mph /  3.2km/h 93% 0in /  0.0mm 0 W/m2
21:49 39.7 °F /  4.3 °C 38.1 °F /  3.4 °C 30.6in /  1037.6hPa WNW 0.9mph /  1.4km/h 2mph /  3.2km/h 94% 0in /  0.0mm 0 W/m2
21:54 39.7 °F /  4.3 °C 38.1 °F /  3.4 °C 30.6in /  1037.6hPa West 0.9mph /  1.4km/h 4mph /  6.4km/h 94% 0in /  0.0mm 0 W/m2
21:59 39.6 °F /  4.2 °C 37.9 °F /  3.3 °C 30.6in /  1037.6hPa West 2.9mph /  4.7km/h 7mph /  11.3km/h 94% 0in /  0.0mm 0 W/m2
22:04 39.6 °F /  4.2 °C 37.9 °F /  3.3 °C 30.6in /  1037.6hPa WNW 0.9mph /  1.4km/h 4mph /  6.4km/h 94% 0in /  0.0mm 0 W/m2
22:09 39.4 °F /  4.1 °C 37.8 °F /  3.2 °C 30.6in /  1037.6hPa WNW 2mph /  3.2km/h 6mph /  9.7km/h 94% 0in /  0.0mm 0 W/m2
22:14 39.4 °F /  4.1 °C 37.8 °F /  3.2 °C 30.6in /  1037.6hPa WNW 2mph /  3.2km/h 3mph /  4.8km/h 94% 0in /  0.0mm 0 W/m2
22:19 39.4 °F /  4.1 °C 37.8 °F /  3.2 °C 30.6in /  1037.2hPa WNW 4mph /  6.4km/h 8mph /  12.9km/h 94% 0in /  0.0mm 0 W/m2
22:24 39.4 °F /  4.1 °C 37.8 °F /  3.2 °C 30.6in /  1037.6hPa WNW 0.9mph /  1.4km/h 3mph /  4.8km/h 94% 0in /  0.0mm 0 W/m2
22:29 39.4 °F /  4.1 °C 37.8 °F /  3.2 °C 30.6in /  1037.6hPa West 2.9mph /  4.7km/h 8mph /  12.9km/h 94% 0in /  0.0mm 0 W/m2
22:34 39.6 °F /  4.2 °C 38.3 °F /  3.5 °C 30.6in /  1037.6hPa West 4mph /  6.4km/h 8mph /  12.9km/h 95% 0in /  0.0mm 0 W/m2
22:39 39.6 °F /  4.2 °C 37.9 °F /  3.3 °C 30.6in /  1037.6hPa West 2.9mph /  4.7km/h 4mph /  6.4km/h 94% 0in /  0.0mm 0 W/m2
22:44 39.6 °F /  4.2 °C 37.9 °F /  3.3 °C 30.6in /  1037.6hPa West 6mph /  9.7km/h 6mph /  9.7km/h 94% 0in /  0.0mm 0 W/m2
22:49 39.4 °F /  4.1 °C 37.8 °F /  3.2 °C 30.6in /  1037.6hPa WNW 0.9mph /  1.4km/h 4mph /  6.4km/h 94% 0in /  0.0mm 0 W/m2
22:54 39.6 °F /  4.2 °C 37.9 °F /  3.3 °C 30.6in /  1037.6hPa NW 0.9mph /  1.4km/h 3mph /  4.8km/h 94% 0in /  0.0mm 0 W/m2
22:59 39.6 °F /  4.2 °C 37.9 °F /  3.3 °C 30.6in /  1037.2hPa WNW 0.9mph /  1.4km/h 3mph /  4.8km/h 94% 0in /  0.0mm 0 W/m2
23:04 39.6 °F /  4.2 °C 37.9 °F /  3.3 °C 30.6in /  1037.6hPa NW 2.9mph /  4.7km/h 4mph /  6.4km/h 94% 0in /  0.0mm 0 W/m2
23:09 39.7 °F /  4.3 °C 38.1 °F /  3.4 °C 30.6in /  1037.6hPa NW 2mph /  3.2km/h 6mph /  9.7km/h 94% 0in /  0.0mm 0 W/m2
23:14 39.7 °F /  4.3 °C 38.1 °F /  3.4 °C 30.6in /  1037.6hPa West 2mph /  3.2km/h 4mph /  6.4km/h 94% 0in /  0.0mm 0 W/m2
23:19 39.7 °F /  4.3 °C 38.1 °F /  3.4 °C 30.6in /  1037.6hPa WNW 0.9mph /  1.4km/h 5mph /  8km/h 94% 0in /  0.0mm 0 W/m2
23:24 39.7 °F /  4.3 °C 38.1 °F /  3.4 °C 30.6in /  1037.2hPa WNW 0.9mph /  1.4km/h 6mph /  9.7km/h 94% 0in /  0.0mm 0 W/m2
23:29 39.7 °F /  4.3 °C 38.1 °F /  3.4 °C 30.6in /  1037.2hPa WNW 0.9mph /  1.4km/h 2mph /  3.2km/h 94% 0in /  0.0mm 0 W/m2
23:34 39.6 °F /  4.2 °C 37.9 °F /  3.3 °C 30.6in /  1037.2hPa West 2mph /  3.2km/h 3mph /  4.8km/h 94% 0in /  0.0mm 0 W/m2
23:39 39.6 °F /  4.2 °C 37.9 °F /  3.3 °C 30.6in /  1037.2hPa WNW 2.9mph /  4.7km/h 3mph /  4.8km/h 94% 0in /  0.0mm 0 W/m2
23:44 39.6 °F /  4.2 °C 37.9 °F /  3.3 °C 30.6in /  1037.2hPa Calm   2mph /  3.2km/h 94% 0in /  0.0mm 0 W/m2
23:49 39.4 °F /  4.1 °C 37.8 °F /  3.2 °C 30.6in /  1037.2hPa West 2mph /  3.2km/h 4mph /  6.4km/h 94% 0in /  0.0mm 0 W/m2
23:54 39.4 °F /  4.1 °C 37.8 °F /  3.2 °C 30.6in /  1037.6hPa WNW 2mph /  3.2km/h 3mph /  4.8km/h 94% 0in /  0.0mm 0 W/m2
23:59 39.2 °F /  4 °C 37.6 °F /  3.1 °C 30.6in /  1037.2hPa West 0.9mph /  1.4km/h 4mph /  6.4km/h 94% 0in /  0.0mm 0 W/m2
Juneau County Weather
Compliments of Weather Underground - 4 mb